createdAt,value
2018-09-29T00:02:09.567Z,99.90
2018-09-29T00:04:56.589Z,99.90
2018-09-29T00:07:27.124Z,99.90
2018-09-29T00:09:59.970Z,99.90
2018-09-29T00:12:30.466Z,99.90
2018-09-29T00:15:04.431Z,99.90
2018-09-29T00:17:33.967Z,99.90
2018-09-29T00:20:02.666Z,99.90
2018-09-29T00:22:31.134Z,99.90
2018-09-29T00:25:10.729Z,99.90
2018-09-29T00:27:41.284Z,99.90
2018-09-29T00:30:09.833Z,99.90
2018-09-29T00:32:38.416Z,99.90
2018-09-29T00:35:07.152Z,99.90
2018-09-29T00:37:37.681Z,99.90
2018-09-29T00:40:10.495Z,99.90
2018-09-29T00:42:40.038Z,99.90
2018-09-29T00:45:11.709Z,99.90
2018-09-29T00:47:45.790Z,99.90
2018-09-29T00:50:18.278Z,99.90
2018-09-29T00:52:46.862Z,99.90
2018-09-29T00:55:15.477Z,99.90
2018-09-29T00:57:44.076Z,99.90
2018-09-29T01:00:24.864Z,99.90
2018-09-29T01:02:55.407Z,99.90
2018-09-29T01:05:26.065Z,99.90
2018-09-29T01:07:55.597Z,99.90
2018-09-29T01:10:25.134Z,99.90
2018-09-29T01:13:08.351Z,99.90
2018-09-29T01:15:36.934Z,99.90
2018-09-29T01:18:05.542Z,99.90
2018-09-29T01:20:37.608Z,99.90
2018-09-29T01:23:07.178Z,99.90
2018-09-29T01:25:39.117Z,99.90
2018-09-29T01:28:08.671Z,99.90
2018-09-29T01:30:37.275Z,99.90
2018-09-29T01:33:06.829Z,99.90
2018-09-29T01:35:37.328Z,99.90
2018-09-29T01:38:05.856Z,99.90
2018-09-29T01:40:34.441Z,99.90
2018-09-29T01:43:02.979Z,99.90
2018-09-29T01:45:33.507Z,99.90
2018-09-29T01:48:02.997Z,99.90
2018-09-29T01:50:36.558Z,99.90
2018-09-29T01:53:07.232Z,99.90
2018-09-29T01:55:39.096Z,99.90
2018-09-29T01:58:09.679Z,99.90
2018-09-29T02:00:39.222Z,99.90
2018-09-29T02:03:13.407Z,99.90
2018-09-29T02:05:42.855Z,99.90
2018-09-29T02:08:11.718Z,99.90
2018-09-29T02:10:41.640Z,99.90
2018-09-29T02:13:11.171Z,99.90
2018-09-29T02:15:39.653Z,99.90
2018-09-29T02:18:08.695Z,99.90
2018-09-29T02:20:37.291Z,99.90
2018-09-29T02:23:09.183Z,99.90
2018-09-29T02:25:37.851Z,99.90
2018-09-29T02:28:08.047Z,99.90
2018-09-29T02:30:36.682Z,99.90
2018-09-29T02:33:05.297Z,99.90
2018-09-29T02:35:33.899Z,99.90
2018-09-29T02:38:04.540Z,99.90
2018-09-29T02:40:34.065Z,99.90
2018-09-29T02:43:03.517Z,99.90
2018-09-29T02:45:32.087Z,99.90
2018-09-29T02:48:00.745Z,99.90
2018-09-29T02:50:32.700Z,99.90
2018-09-29T02:53:04.570Z,99.90
2018-09-29T02:55:36.323Z,99.90
2018-09-29T02:58:04.913Z,99.90
2018-09-29T03:00:36.713Z,99.90
2018-09-29T03:03:07.348Z,99.90
2018-09-29T03:05:38.959Z,99.90
2018-09-29T03:08:10.690Z,99.90
2018-09-29T03:10:39.293Z,99.90
2018-09-29T03:13:07.859Z,99.90
2018-09-29T03:15:37.443Z,99.90
2018-09-29T03:18:06.112Z,99.90
2018-09-29T03:20:44.667Z,99.90
2018-09-29T03:23:17.971Z,99.90
2018-09-29T03:25:46.481Z,99.90
2018-09-29T03:28:15.004Z,99.90
2018-09-29T03:30:48.952Z,99.90
2018-09-29T03:33:19.533Z,99.90
2018-09-29T03:35:48.079Z,99.90
2018-09-29T03:38:22.500Z,99.90
2018-09-29T03:40:51.174Z,99.90
2018-09-29T03:43:20.060Z,99.90
2018-09-29T03:45:49.731Z,99.90
2018-09-29T03:48:21.930Z,99.90
2018-09-29T03:50:50.578Z,99.90
2018-09-29T03:53:20.142Z,99.90
2018-09-29T03:55:48.724Z,99.90
2018-09-29T03:58:17.238Z,99.90
2018-09-29T04:00:45.747Z,99.90
2018-09-29T04:03:15.327Z,99.90
2018-09-29T04:05:43.831Z,99.90
2018-09-29T04:08:16.774Z,99.90
2018-09-29T04:10:46.388Z,99.90
2018-09-29T04:13:14.951Z,99.90
2018-09-29T04:15:43.458Z,99.90
2018-09-29T04:18:11.985Z,99.90
2018-09-29T04:20:40.574Z,99.90
2018-09-29T04:23:09.113Z,99.90
2018-09-29T04:25:38.623Z,99.90
2018-09-29T04:28:07.308Z,99.90
2018-09-29T04:30:37.959Z,99.90
2018-09-29T04:33:07.539Z,99.90
2018-09-29T04:35:36.158Z,99.90
2018-09-29T04:38:05.937Z,99.90
2018-09-29T04:40:35.543Z,99.90
2018-09-29T04:43:10.338Z,99.90
2018-09-29T04:45:39.067Z,99.90
2018-09-29T04:48:12.331Z,99.90
2018-09-29T04:50:41.998Z,99.90
2018-09-29T04:53:11.342Z,99.90
2018-09-29T04:55:41.840Z,99.90
2018-09-29T04:58:12.419Z,99.90
2018-09-29T05:00:40.960Z,99.90
2018-09-29T05:03:12.659Z,99.90
2018-09-29T05:05:42.171Z,99.90
2018-09-29T05:08:14.267Z,99.90
2018-09-29T05:10:43.810Z,99.90
2018-09-29T05:13:13.348Z,99.90
2018-09-29T05:15:41.959Z,99.90
2018-09-29T05:18:18.001Z,99.90
2018-09-29T05:20:56.756Z,99.90
2018-09-29T05:23:26.399Z,99.90
2018-09-29T05:25:54.963Z,99.90
2018-09-29T05:28:23.529Z,99.90
2018-09-29T05:30:54.160Z,99.90
2018-09-29T05:33:25.083Z,99.90
2018-09-29T05:35:53.715Z,99.90
2018-09-29T05:38:24.344Z,99.90
2018-09-29T05:40:58.072Z,99.90
2018-09-29T05:43:28.299Z,99.90
2018-09-29T05:45:58.884Z,99.90
2018-09-29T05:48:28.081Z,99.90
2018-09-29T05:50:56.903Z,99.90
2018-09-29T05:53:25.577Z,99.90
2018-09-29T05:55:57.413Z,99.90
2018-09-29T05:58:28.139Z,99.90
2018-09-29T06:00:57.564Z,99.90
2018-09-29T06:03:26.196Z,99.90
2018-09-29T06:05:55.338Z,99.90
2018-09-29T06:08:24.980Z,99.90
2018-09-29T06:10:55.652Z,99.90
2018-09-29T06:13:24.392Z,99.90
2018-09-29T06:15:53.118Z,99.90
2018-09-29T06:18:21.889Z,99.90
2018-09-29T06:20:50.703Z,99.90
2018-09-29T06:23:19.468Z,99.90
2018-09-29T06:26:06.582Z,99.90
2018-09-29T06:28:36.519Z,99.90
2018-09-29T06:31:06.122Z,99.90
2018-09-29T06:33:37.096Z,99.90
2018-09-29T06:36:05.687Z,99.90
2018-09-29T06:38:35.289Z,99.90
2018-09-29T06:41:03.904Z,99.90
2018-09-29T06:43:35.164Z,99.90
2018-09-29T06:46:04.449Z,99.90
2018-09-29T06:48:34.041Z,99.90
2018-09-29T06:51:02.747Z,99.90
2018-09-29T06:53:32.444Z,99.90
2018-09-29T06:56:02.005Z,99.90
2018-09-29T06:58:30.598Z,99.90
2018-09-29T07:00:59.627Z,99.90
2018-09-29T07:03:28.227Z,99.90
2018-09-29T07:05:57.120Z,99.90
2018-09-29T07:08:34.435Z,99.90
2018-09-29T07:11:02.913Z,99.90
2018-09-29T07:13:31.516Z,99.90
2018-09-29T07:16:11.252Z,99.90
2018-09-29T07:18:39.923Z,99.90
2018-09-29T07:21:11.421Z,99.90
2018-09-29T07:23:41.307Z,99.90
2018-09-29T07:26:09.840Z,99.90
2018-09-29T07:28:42.953Z,99.90
2018-09-29T07:31:15.056Z,99.90
2018-09-29T07:33:44.603Z,99.90
2018-09-29T07:36:18.799Z,99.90
2018-09-29T07:38:48.423Z,99.90
2018-09-29T07:41:18.952Z,99.90
2018-09-29T07:43:47.520Z,99.90
2018-09-29T07:46:17.249Z,99.90
2018-09-29T07:48:46.852Z,99.90
2018-09-29T07:51:15.531Z,99.90
2018-09-29T07:53:44.408Z,99.90
2018-09-29T07:56:13.039Z,99.90
2018-09-29T07:58:41.549Z,99.90
2018-09-29T08:01:11.105Z,99.90
2018-09-29T08:03:40.731Z,99.90
2018-09-29T08:06:20.313Z,99.90
2018-09-29T08:08:48.875Z,99.90
2018-09-29T08:11:17.533Z,99.90
2018-09-29T08:13:47.352Z,99.90
2018-09-29T08:16:18.031Z,99.90
2018-09-29T08:18:46.596Z,99.90
2018-09-29T08:21:22.844Z,99.90
2018-09-29T08:23:51.492Z,99.90
2018-09-29T08:26:20.115Z,99.90
2018-09-29T08:28:50.692Z,99.90
2018-09-29T08:31:19.299Z,99.90
2018-09-29T08:33:47.931Z,99.90
2018-09-29T08:36:19.576Z,99.90
2018-09-29T08:38:49.803Z,99.90
2018-09-29T08:41:22.706Z,99.90
2018-09-29T08:43:53.458Z,99.90
2018-09-29T08:46:30.218Z,99.90
2018-09-29T08:49:02.641Z,99.90
2018-09-29T08:51:33.543Z,99.90
2018-09-29T08:54:05.500Z,99.90
2018-09-29T08:56:39.714Z,99.90
2018-09-29T08:59:19.117Z,99.90
2018-09-29T09:01:51.395Z,99.90
2018-09-29T09:04:26.145Z,99.90
2018-09-29T09:06:55.856Z,99.90
2018-09-29T09:09:26.840Z,99.90
2018-09-29T09:12:09.728Z,99.90
2018-09-29T09:14:39.327Z,99.90
2018-09-29T09:17:08.919Z,99.90
2018-09-29T09:19:41.559Z,99.90
2018-09-29T09:22:10.123Z,99.90
2018-09-29T09:24:39.864Z,99.90
2018-09-29T09:27:08.436Z,99.90
2018-09-29T09:29:37.980Z,99.90
2018-09-29T09:32:07.616Z,99.90
2018-09-29T09:34:38.484Z,99.90
2018-09-29T09:37:08.067Z,99.90
2018-09-29T09:39:37.621Z,99.90
2018-09-29T09:42:06.164Z,99.90
2018-09-29T09:44:34.754Z,99.90
2018-09-29T09:47:07.327Z,99.90
2018-09-29T09:49:36.627Z,99.90
2018-09-29T09:52:06.217Z,99.90
2018-09-29T09:54:34.792Z,99.90
2018-09-29T09:57:03.328Z,99.90
2018-09-29T09:59:32.195Z,99.90
2018-09-29T10:02:12.102Z,99.90
2018-09-29T10:04:42.984Z,99.90
2018-09-29T10:07:16.384Z,99.90
2018-09-29T10:09:47.942Z,99.90
2018-09-29T10:12:24.147Z,99.90
2018-09-29T10:14:58.221Z,99.90
2018-09-29T10:17:27.928Z,99.90
2018-09-29T10:19:56.471Z,99.90
2018-09-29T10:22:28.451Z,99.90
2018-09-29T10:24:59.019Z,99.90
2018-09-29T10:27:27.684Z,99.50
2018-09-29T10:29:56.191Z,98.40
2018-09-29T10:32:24.731Z,96.70
2018-09-29T10:34:53.265Z,95.50
2018-09-29T10:37:21.801Z,94.10
2018-09-29T10:39:51.537Z,93.40
2018-09-29T10:42:20.043Z,92.50
2018-09-29T10:44:49.634Z,92.70
2018-09-29T10:47:19.155Z,91.10
2018-09-29T10:49:47.816Z,90.00
2018-09-29T10:52:17.413Z,87.20
2018-09-29T10:54:46.535Z,89.50
2018-09-29T10:57:15.294Z,87.80
2018-09-29T10:59:43.852Z,87.50
2018-09-29T11:02:13.691Z,84.70
2018-09-29T11:04:42.291Z,84.60
2018-09-29T11:07:12.275Z,82.50
2018-09-29T11:09:40.820Z,81.90
2018-09-29T11:12:15.092Z,79.10
2018-09-29T11:14:44.664Z,78.20
2018-09-29T11:17:13.235Z,76.00
2018-09-29T11:19:45.318Z,76.80
2018-09-29T11:22:15.836Z,78.00
2018-09-29T11:24:48.018Z,76.50
2018-09-29T11:27:17.558Z,74.30
2018-09-29T11:29:48.261Z,76.50
2018-09-29T11:32:18.969Z,74.30
2018-09-29T11:34:47.515Z,74.40
2018-09-29T11:37:18.121Z,74.00
2018-09-29T11:39:47.851Z,73.80
2018-09-29T11:42:16.496Z,70.60
2018-09-29T11:44:49.018Z,74.00
2018-09-29T11:47:17.556Z,72.40
2018-09-29T11:49:46.088Z,69.40
2018-09-29T11:52:14.616Z,67.50
2018-09-29T11:54:44.152Z,66.10
2018-09-29T11:57:12.644Z,66.10
2018-09-29T11:59:42.016Z,67.50
2018-09-29T12:02:10.653Z,67.60
2018-09-29T12:04:39.182Z,65.10
2018-09-29T12:07:07.793Z,64.30
2018-09-29T12:09:38.368Z,62.80
2018-09-29T12:12:09.999Z,62.50
2018-09-29T12:14:38.557Z,61.70
2018-09-29T12:17:07.218Z,59.20
2018-09-29T12:19:35.792Z,59.60
2018-09-29T12:22:04.360Z,58.80
2018-09-29T12:24:33.013Z,57.80
2018-09-29T12:27:01.574Z,58.10
2018-09-29T12:29:30.166Z,57.20
2018-09-29T12:31:58.700Z,55.10
2018-09-29T12:34:27.236Z,56.00
2018-09-29T12:36:57.809Z,57.00
2018-09-29T12:39:26.430Z,56.30
2018-09-29T12:41:54.975Z,55.10
2018-09-29T12:44:23.547Z,53.50
2018-09-29T12:46:52.091Z,54.30
2018-09-29T12:49:20.652Z,53.90
2018-09-29T12:51:49.281Z,53.40
2018-09-29T12:54:17.830Z,54.00
2018-09-29T12:56:50.438Z,53.50
2018-09-29T12:59:18.963Z,52.30
2018-09-29T13:01:47.460Z,52.40
2018-09-29T13:04:15.938Z,51.50
2018-09-29T13:06:44.483Z,52.40
2018-09-29T13:09:12.996Z,51.00
2018-09-29T13:11:42.922Z,49.20
2018-09-29T13:14:21.793Z,49.50
2018-09-29T13:16:51.356Z,48.10
2018-09-29T13:19:20.810Z,47.60
2018-09-29T13:21:52.511Z,47.90
2018-09-29T13:24:22.866Z,46.80
2018-09-29T13:26:52.371Z,48.80
2018-09-29T13:29:20.848Z,47.90
2018-09-29T13:31:49.429Z,45.50
2018-09-29T13:34:18.891Z,49.10
2018-09-29T13:36:49.378Z,49.90
2018-09-29T13:39:18.869Z,50.90
2018-09-29T13:41:47.432Z,48.60
2018-09-29T13:44:17.431Z,48.10
2018-09-29T13:46:45.984Z,47.30
2018-09-29T13:49:16.486Z,47.00
2018-09-29T13:51:45.076Z,45.40
2018-09-29T13:54:20.270Z,44.80
2018-09-29T13:56:49.074Z,44.40
2018-09-29T13:59:17.680Z,48.30
2018-09-29T14:01:48.220Z,48.60
2018-09-29T14:04:20.148Z,47.40
2018-09-29T14:06:48.685Z,46.80
2018-09-29T14:09:18.176Z,48.30
2018-09-29T14:11:46.765Z,47.90
2018-09-29T14:14:16.315Z,47.30
2018-09-29T14:16:44.862Z,45.60
2018-09-29T14:19:17.556Z,46.50
2018-09-29T14:21:46.683Z,48.20
2018-09-29T14:24:16.191Z,49.30
2018-09-29T14:26:46.048Z,49.50
2018-09-29T14:29:15.432Z,52.20
2018-09-29T14:31:46.397Z,51.80
2018-09-29T14:34:15.995Z,52.40
2018-09-29T14:36:48.263Z,51.90
2018-09-29T14:39:18.820Z,52.70
2018-09-29T14:41:49.384Z,52.80
2018-09-29T14:44:23.647Z,52.60
2018-09-29T14:46:52.300Z,52.60
2018-09-29T14:49:20.863Z,52.80
2018-09-29T14:51:49.418Z,52.80
2018-09-29T14:54:19.941Z,53.70
2018-09-29T14:56:51.454Z,53.80
2018-09-29T14:59:19.969Z,56.40
2018-09-29T15:01:48.504Z,55.50
2018-09-29T15:04:18.062Z,55.20
2018-09-29T15:06:47.542Z,55.10
2018-09-29T15:09:17.098Z,54.40
2018-09-29T15:11:46.591Z,55.50
2018-09-29T15:14:16.206Z,54.90
2018-09-29T15:16:44.767Z,55.10
2018-09-29T15:19:13.331Z,55.70
2018-09-29T15:21:41.899Z,57.30
2018-09-29T15:24:10.803Z,57.30
2018-09-29T15:26:40.412Z,56.30
2018-09-29T15:29:08.942Z,56.30
2018-09-29T15:31:37.543Z,56.80
2018-09-29T15:34:06.167Z,57.70
2018-09-29T15:36:35.665Z,58.60
2018-09-29T15:39:06.265Z,58.10
2018-09-29T15:41:35.003Z,58.70
2018-09-29T15:44:03.788Z,59.30
2018-09-29T15:46:32.414Z,60.60
2018-09-29T15:49:00.941Z,61.10
2018-09-29T15:51:29.482Z,60.60
2018-09-29T15:53:57.970Z,60.80
2018-09-29T15:56:30.687Z,61.20
2018-09-29T15:59:03.280Z,63.10
2018-09-29T16:01:33.895Z,63.40
2018-09-29T16:04:02.467Z,63.60
2018-09-29T16:06:30.971Z,62.40
2018-09-29T16:09:07.384Z,63.50
2018-09-29T16:11:35.964Z,64.80
2018-09-29T16:14:08.354Z,65.30
2018-09-29T16:16:37.873Z,64.70
2018-09-29T16:19:06.652Z,65.10
2018-09-29T16:21:35.271Z,65.50
2018-09-29T16:24:03.833Z,65.50
2018-09-29T16:26:32.427Z,68.40
2018-09-29T16:29:00.979Z,70.20
2018-09-29T16:31:29.503Z,72.40
2018-09-29T16:33:58.063Z,75.10
2018-09-29T16:36:27.672Z,77.20
2018-09-29T16:38:56.207Z,78.10
2018-09-29T16:41:24.863Z,78.50
2018-09-29T16:43:53.416Z,80.00
2018-09-29T16:46:22.039Z,81.40
2018-09-29T16:48:52.646Z,82.00
2018-09-29T16:51:21.275Z,83.90
2018-09-29T16:53:49.824Z,85.20
2018-09-29T16:56:22.959Z,87.50
2018-09-29T16:58:51.519Z,88.90
2018-09-29T17:01:22.143Z,90.80
2018-09-29T17:03:50.740Z,91.80
2018-09-29T17:06:19.272Z,93.10
2018-09-29T17:08:47.870Z,94.50
2018-09-29T17:11:17.388Z,95.60
2018-09-29T17:13:45.992Z,96.40
2018-09-29T17:16:14.623Z,98.40
2018-09-29T17:18:43.191Z,99.80
2018-09-29T17:21:11.791Z,99.90
2018-09-29T17:23:46.017Z,99.90
2018-09-29T17:26:14.623Z,99.90
2018-09-29T17:28:44.192Z,99.90
2018-09-29T17:31:12.735Z,99.90
2018-09-29T17:33:41.330Z,99.90
2018-09-29T17:36:14.920Z,99.90
2018-09-29T17:38:43.524Z,99.90
2018-09-29T17:41:12.360Z,99.90
2018-09-29T17:43:40.916Z,99.90
2018-09-29T17:46:10.483Z,99.90
2018-09-29T17:48:39.029Z,99.90
2018-09-29T17:51:07.691Z,99.90
2018-09-29T17:53:38.262Z,99.90
2018-09-29T17:56:10.843Z,99.90
2018-09-29T17:58:41.400Z,99.90
2018-09-29T18:01:10.000Z,99.90
2018-09-29T18:03:43.814Z,99.90
2018-09-29T18:06:12.440Z,99.90
2018-09-29T18:08:41.036Z,99.90
2018-09-29T18:11:10.693Z,99.90
2018-09-29T18:13:43.092Z,99.90
2018-09-29T18:16:13.679Z,99.90
2018-09-29T18:18:44.191Z,99.90
2018-09-29T18:21:13.710Z,99.90
2018-09-29T18:23:43.448Z,99.90
2018-09-29T18:26:12.996Z,99.90
2018-09-29T18:28:42.593Z,99.90
2018-09-29T18:31:12.115Z,99.90
2018-09-29T18:33:41.685Z,99.90
2018-09-29T18:36:10.746Z,99.90
2018-09-29T18:38:40.300Z,99.90
2018-09-29T18:41:09.903Z,99.90
2018-09-29T18:43:39.502Z,99.90
2018-09-29T18:46:09.194Z,99.90
2018-09-29T18:48:38.742Z,99.90
2018-09-29T18:51:08.541Z,99.90
2018-09-29T18:53:37.039Z,99.90
2018-09-29T18:56:06.057Z,99.90
2018-09-29T18:58:34.800Z,99.90
2018-09-29T19:01:03.703Z,99.90
2018-09-29T19:03:37.021Z,99.90
2018-09-29T19:06:06.702Z,99.90
2018-09-29T19:08:38.829Z,99.90
2018-09-29T19:11:08.077Z,99.90
2018-09-29T19:13:36.813Z,99.90
2018-09-29T19:16:06.447Z,99.90
2018-09-29T19:18:35.026Z,99.90
2018-09-29T19:21:04.091Z,99.90
2018-09-29T19:23:36.219Z,99.90
2018-09-29T19:26:04.859Z,99.90
2018-09-29T19:28:35.411Z,99.90
2018-09-29T19:31:04.965Z,99.90
2018-09-29T19:33:36.816Z,99.90
2018-09-29T19:36:08.623Z,99.90
2018-09-29T19:38:38.593Z,99.90
2018-09-29T19:41:09.517Z,99.90
2018-09-29T19:43:39.582Z,99.90
2018-09-29T19:46:08.819Z,99.90
2018-09-29T19:48:37.391Z,99.90
2018-09-29T19:51:07.672Z,99.90
2018-09-29T19:53:38.336Z,99.90
2018-09-29T19:56:10.629Z,99.90
2018-09-29T19:58:40.192Z,99.90
2018-09-29T20:01:09.855Z,99.90
2018-09-29T20:03:38.431Z,99.90
2018-09-29T20:06:07.034Z,99.90
2018-09-29T20:08:36.626Z,99.90
2018-09-29T20:11:05.300Z,99.90
2018-09-29T20:13:35.882Z,99.90
2018-09-29T20:16:05.628Z,99.90
2018-09-29T20:18:35.171Z,99.90
2018-09-29T20:21:04.831Z,99.90
2018-09-29T20:23:33.449Z,99.90
2018-09-29T20:26:02.031Z,99.90
2018-09-29T20:28:32.600Z,99.90
2018-09-29T20:31:03.230Z,99.90
2018-09-29T20:33:34.956Z,99.90
2018-09-29T20:36:08.980Z,99.90
2018-09-29T20:38:37.623Z,99.90
2018-09-29T20:41:11.687Z,99.90
2018-09-29T20:43:41.219Z,99.90
2018-09-29T20:46:10.764Z,99.90
2018-09-29T20:48:39.282Z,99.90
2018-09-29T20:51:07.904Z,99.90
2018-09-29T20:53:36.618Z,99.90
2018-09-29T20:56:07.218Z,99.90
2018-09-29T20:58:35.723Z,99.90
2018-09-29T21:01:04.278Z,99.90
2018-09-29T21:03:33.754Z,99.90
2018-09-29T21:06:02.280Z,99.90
2018-09-29T21:08:36.611Z,99.90
2018-09-29T21:11:07.185Z,99.90
2018-09-29T21:13:36.811Z,99.90
2018-09-29T21:16:06.385Z,99.90
2018-09-29T21:18:35.969Z,99.90
2018-09-29T21:21:06.636Z,99.90
2018-09-29T21:23:35.147Z,99.90
2018-09-29T21:26:04.727Z,99.90
2018-09-29T21:28:34.617Z,99.90
2018-09-29T21:31:04.244Z,99.90
2018-09-29T21:33:32.819Z,99.90
2018-09-29T21:36:01.316Z,99.90
2018-09-29T21:38:30.790Z,99.90
2018-09-29T21:41:00.332Z,99.90
2018-09-29T21:43:29.847Z,99.90
2018-09-29T21:46:03.295Z,99.90
2018-09-29T21:48:31.876Z,99.90
2018-09-29T21:51:00.474Z,99.90
2018-09-29T21:53:29.065Z,99.90
2018-09-29T21:55:57.667Z,99.90
2018-09-29T21:58:27.605Z,99.90
2018-09-29T22:01:01.180Z,99.90
2018-09-29T22:03:30.723Z,99.90
2018-09-29T22:06:02.496Z,99.90
2018-09-29T22:08:35.200Z,99.90
2018-09-29T22:11:09.328Z,99.90
2018-09-29T22:13:39.936Z,99.90
2018-09-29T22:16:08.636Z,99.90
2018-09-29T22:18:37.139Z,99.90
2018-09-29T22:21:06.895Z,99.90
2018-09-29T22:23:41.919Z,99.90
2018-09-29T22:26:15.275Z,99.90
2018-09-29T22:28:44.935Z,99.90
2018-09-29T22:31:13.507Z,99.90
2018-09-29T22:33:44.350Z,99.90
2018-09-29T22:36:12.907Z,99.90
2018-09-29T22:38:41.492Z,99.90
2018-09-29T22:41:10.049Z,99.90
2018-09-29T22:43:39.614Z,99.90
2018-09-29T22:46:08.266Z,99.90
2018-09-29T22:48:36.868Z,99.90
2018-09-29T22:51:05.387Z,99.90
2018-09-29T22:53:33.973Z,99.90
2018-09-29T22:56:04.431Z,99.90
2018-09-29T22:58:33.119Z,99.90
2018-09-29T23:01:01.760Z,99.90
2018-09-29T23:03:30.283Z,99.90
2018-09-29T23:05:58.813Z,99.90
2018-09-29T23:08:27.488Z,99.90
2018-09-29T23:10:55.990Z,99.90
2018-09-29T23:13:24.463Z,99.90
2018-09-29T23:15:54.013Z,99.90
2018-09-29T23:18:22.583Z,99.90
2018-09-29T23:20:52.184Z,99.90
2018-09-29T23:23:20.828Z,99.90
2018-09-29T23:25:51.409Z,99.90
2018-09-29T23:28:21.981Z,99.90
2018-09-29T23:31:00.368Z,99.90
2018-09-29T23:33:28.946Z,99.90
2018-09-29T23:36:00.895Z,99.90
2018-09-29T23:38:29.517Z,99.90
2018-09-29T23:40:58.120Z,99.90
2018-09-29T23:43:27.688Z,99.90
2018-09-29T23:45:57.295Z,99.90
2018-09-29T23:48:25.834Z,99.90
2018-09-29T23:50:54.451Z,99.90
2018-09-29T23:53:24.067Z,99.90
2018-09-29T23:55:53.753Z,99.90
2018-09-29T23:58:23.248Z,99.90
